createdAt,value
2023-03-17T00:03:24.595Z,17.50
2023-03-17T00:07:27.472Z,13.13
2023-03-17T00:11:31.628Z,11.75
2023-03-17T00:15:34.591Z,11.40
2023-03-17T00:19:37.484Z,13.75
2023-03-17T00:23:40.934Z,6.78
2023-03-17T00:27:45.113Z,8.00
2023-03-17T00:31:48.107Z,10.38
2023-03-17T00:35:50.972Z,8.80
2023-03-17T00:39:54.560Z,10.57
2023-03-17T00:43:58.814Z,7.07
2023-03-17T00:48:01.825Z,9.07
2023-03-17T00:52:05.006Z,7.47
2023-03-17T00:56:14.343Z,7.05
2023-03-17T01:00:25.621Z,7.18
2023-03-17T01:04:28.671Z,6.95
2023-03-17T01:08:32.282Z,10.38
2023-03-17T01:12:35.241Z,6.72
2023-03-17T01:16:39.869Z,9.13
2023-03-17T01:20:43.734Z,6.57
2023-03-17T01:24:48.148Z,7.38
2023-03-17T01:28:50.979Z,6.30
2023-03-17T01:32:55.757Z,8.68
2023-03-17T01:36:59.972Z,9.02
2023-03-17T01:41:03.328Z,9.00
2023-03-17T01:45:10.339Z,6.43
2023-03-17T01:49:19.981Z,9.82
2023-03-17T01:53:23.784Z,11.40
2023-03-17T01:57:31.402Z,12.43
2023-03-17T02:01:38.785Z,6.80
2023-03-17T02:05:43.114Z,6.70
2023-03-17T02:09:46.088Z,5.30
2023-03-17T02:13:49.055Z,7.43
2023-03-17T02:17:51.845Z,8.60
2023-03-17T02:21:58.023Z,5.15
2023-03-17T02:26:00.858Z,12.57
2023-03-17T02:30:03.952Z,6.20
2023-03-17T02:34:06.805Z,7.47
2023-03-17T02:38:10.995Z,7.82
2023-03-17T02:42:14.791Z,7.47
2023-03-17T02:46:17.773Z,5.72
2023-03-17T02:50:23.198Z,7.97
2023-03-17T02:54:27.557Z,6.20
2023-03-17T02:58:30.433Z,10.57
2023-03-17T03:02:33.342Z,6.90
2023-03-17T03:06:37.453Z,9.10
2023-03-17T03:10:41.749Z,8.63
2023-03-17T03:14:44.574Z,8.50
2023-03-17T03:18:47.477Z,6.57
2023-03-17T03:22:50.658Z,7.25
2023-03-17T03:26:54.825Z,8.55
2023-03-17T03:30:57.649Z,7.00
2023-03-17T03:35:00.457Z,5.20
2023-03-17T03:39:03.324Z,6.68
2023-03-17T03:43:21.783Z,6.65
2023-03-17T03:47:26.304Z,7.35
2023-03-17T03:51:29.098Z,5.20
2023-03-17T03:55:32.107Z,5.60
2023-03-17T03:59:36.485Z,6.40
2023-03-17T04:03:39.327Z,4.75
2023-03-17T04:07:43.186Z,9.27
2023-03-17T04:11:45.995Z,6.82
2023-03-17T04:15:50.213Z,5.93
2023-03-17T04:19:53.358Z,7.00
2023-03-17T04:23:56.184Z,3.40
2023-03-17T04:27:59.312Z,6.93
2023-03-17T04:32:03.746Z,8.10
2023-03-17T04:36:07.748Z,6.93
2023-03-17T04:40:12.637Z,5.53
2023-03-17T04:44:15.469Z,6.45
2023-03-17T04:48:19.628Z,5.82
2023-03-17T04:52:22.578Z,6.88
2023-03-17T04:56:25.420Z,8.88
2023-03-17T05:00:28.676Z,7.53
2023-03-17T05:04:33.041Z,5.63
2023-03-17T05:08:36.303Z,6.38
2023-03-17T05:12:39.094Z,7.18
2023-03-17T05:16:41.940Z,7.88
2023-03-17T05:20:46.203Z,7.75
2023-03-17T05:24:49.018Z,7.35
2023-03-17T05:28:51.920Z,9.95
2023-03-17T05:32:54.799Z,10.00
2023-03-17T05:36:59.004Z,11.77
2023-03-17T05:41:02.821Z,8.75
2023-03-17T05:45:07.225Z,8.82
2023-03-17T05:49:10.083Z,6.80
2023-03-17T05:53:14.269Z,6.10
2023-03-17T05:57:17.195Z,10.52
2023-03-17T06:01:20.004Z,11.93
2023-03-17T06:05:22.870Z,9.30
2023-03-17T06:09:27.166Z,8.77
2023-03-17T06:13:30.053Z,9.50
2023-03-17T06:17:32.937Z,9.80
2023-03-17T06:21:35.747Z,8.80
2023-03-17T06:25:39.964Z,8.88
2023-03-17T06:29:42.751Z,7.50
2023-03-17T06:33:45.550Z,8.30
2023-03-17T06:37:48.373Z,8.80
2023-03-17T06:41:52.731Z,7.32
2023-03-17T06:45:55.648Z,8.05
2023-03-17T06:49:58.561Z,9.63
2023-03-17T06:54:01.453Z,11.27
2023-03-17T06:58:05.618Z,8.05
2023-03-17T07:02:08.536Z,12.65
2023-03-17T07:06:11.372Z,8.00
2023-03-17T07:10:17.208Z,6.30
2023-03-17T07:14:21.496Z,14.15
2023-03-17T07:18:24.400Z,11.10
2023-03-17T07:22:27.196Z,8.75
2023-03-17T07:26:30.022Z,17.83
2023-03-17T07:30:34.218Z,9.15
2023-03-17T07:34:37.415Z,6.78
2023-03-17T07:38:40.221Z,8.27
2023-03-17T07:42:43.627Z,7.97
2023-03-17T07:46:47.867Z,5.40
2023-03-17T07:50:50.792Z,6.85
2023-03-17T07:54:53.931Z,7.00
2023-03-17T07:58:58.425Z,10.27
2023-03-17T08:03:10.272Z,8.90
2023-03-17T08:07:14.603Z,10.80
2023-03-17T08:11:17.594Z,12.85
2023-03-17T08:15:21.946Z,18.08
2023-03-17T08:19:26.137Z,8.23
2023-03-17T08:23:29.145Z,6.20
2023-03-17T08:27:33.810Z,7.10
2023-03-17T08:31:37.450Z,8.10
2023-03-17T08:35:43.601Z,13.07
2023-03-17T08:39:46.764Z,9.43
2023-03-17T08:43:50.362Z,8.77
2023-03-17T08:47:53.475Z,9.02
2023-03-17T08:51:57.590Z,10.35
2023-03-17T08:56:00.522Z,10.90
2023-03-17T09:00:09.619Z,9.85
2023-03-17T09:04:12.336Z,9.27
2023-03-17T09:08:16.573Z,8.07
2023-03-17T09:12:19.376Z,10.40
2023-03-17T09:16:23.781Z,5.47
2023-03-17T09:20:27.008Z,10.07
2023-03-17T09:28:35.194Z,6.20
2023-03-17T09:32:38.185Z,7.88
2023-03-17T09:40:50.185Z,5.73
2023-03-17T09:45:10.665Z,6.93
2023-03-17T09:49:16.233Z,8.88
2023-03-17T09:53:22.987Z,9.85
2023-03-17T09:57:30.502Z,12.75
2023-03-17T10:01:33.540Z,8.32
2023-03-17T10:09:46.150Z,12.15
2023-03-17T10:13:58.922Z,10.65
2023-03-17T10:18:02.432Z,23.83
2023-03-17T10:22:08.089Z,13.35
2023-03-17T10:26:24.909Z,15.85
2023-03-17T10:30:33.643Z,8.45
2023-03-17T10:34:39.478Z,8.27
2023-03-17T10:38:43.179Z,7.90
2023-03-17T10:42:49.067Z,7.80
2023-03-17T10:47:00.631Z,8.40
2023-03-17T10:51:08.456Z,11.75
2023-03-17T10:55:15.617Z,8.48
2023-03-17T10:59:20.494Z,13.48
2023-03-17T11:03:28.449Z,7.68
2023-03-17T11:07:39.424Z,11.35
2023-03-17T11:11:47.153Z,14.85
2023-03-17T11:15:54.331Z,9.82
2023-03-17T11:20:09.637Z,8.48
2023-03-17T11:24:16.860Z,13.45
2023-03-17T11:28:21.642Z,14.55
2023-03-17T11:32:29.640Z,2.53
2023-03-17T11:36:47.025Z,8.45
2023-03-17T11:41:08.898Z,7.38
2023-03-17T11:45:20.868Z,6.80
2023-03-17T11:49:29.991Z,12.73
2023-03-17T11:53:56.876Z,9.85
2023-03-17T11:58:03.212Z,6.30
2023-03-17T12:02:17.303Z,8.60
2023-03-17T12:10:30.947Z,10.48
2023-03-17T12:14:39.439Z,7.75
2023-03-17T12:18:49.736Z,4.82
2023-03-17T12:22:58.755Z,6.53
2023-03-17T12:27:06.924Z,4.43
2023-03-17T12:31:14.821Z,7.72
2023-03-17T12:35:27.847Z,8.77
2023-03-17T12:39:33.557Z,6.53
2023-03-17T12:43:47.914Z,3.40
2023-03-17T12:48:11.103Z,4.90
2023-03-17T12:52:38.737Z,6.60
2023-03-17T12:56:46.102Z,6.55
2023-03-17T13:00:57.633Z,15.05
2023-03-17T13:05:01.772Z,3.53
2023-03-17T13:09:37.281Z,10.43
2023-03-17T13:13:45.691Z,3.42
2023-03-17T13:17:50.129Z,8.20
2023-03-17T13:22:18.665Z,8.23
2023-03-17T13:26:44.712Z,6.95
2023-03-17T13:30:58.276Z,12.55
2023-03-17T13:35:22.136Z,5.13
2023-03-17T13:39:56.307Z,13.35
2023-03-17T13:44:15.365Z,9.82
2023-03-17T13:48:39.118Z,5.95
2023-03-17T13:52:44.337Z,6.97
2023-03-17T13:56:49.307Z,5.43
2023-03-17T14:01:00.667Z,7.75
2023-03-17T14:05:07.407Z,5.88
2023-03-17T14:09:19.290Z,8.45
2023-03-17T14:13:26.503Z,6.05
2023-03-17T14:17:34.155Z,5.25
2023-03-17T14:21:37.129Z,8.07
2023-03-17T14:25:40.597Z,6.35
2023-03-17T14:29:43.540Z,4.97
2023-03-17T14:33:47.702Z,10.25
2023-03-17T14:37:51.973Z,7.55
2023-03-17T14:42:00.245Z,4.00
2023-03-17T14:46:04.534Z,5.40
2023-03-17T14:50:17.361Z,8.73
2023-03-17T14:54:22.762Z,7.93
2023-03-17T14:58:28.395Z,12.32
2023-03-17T15:02:35.270Z,6.35
2023-03-17T15:06:48.913Z,8.20
2023-03-17T15:10:51.763Z,5.75
2023-03-17T15:14:57.372Z,7.50
2023-03-17T15:19:06.992Z,6.43
2023-03-17T15:23:18.374Z,6.15
2023-03-17T15:27:21.127Z,6.35
2023-03-17T15:31:28.481Z,8.15
2023-03-17T15:35:31.487Z,6.65
2023-03-17T15:39:35.699Z,7.85
2023-03-17T15:43:38.684Z,6.55
2023-03-17T15:47:41.796Z,8.23
2023-03-17T15:51:44.614Z,5.90
2023-03-17T15:55:49.395Z,12.52
2023-03-17T15:59:52.499Z,8.75
2023-03-17T16:03:55.369Z,9.98
2023-03-17T16:07:58.681Z,7.90
2023-03-17T16:12:03.125Z,11.05
2023-03-17T16:16:06.194Z,6.93
2023-03-17T16:20:23.657Z,9.95
2023-03-17T16:24:28.166Z,14.35
2023-03-17T16:28:33.606Z,7.72
2023-03-17T16:32:36.511Z,6.68
2023-03-17T16:36:40.202Z,6.97
2023-03-17T16:40:43.733Z,16.52
2023-03-17T16:44:48.040Z,10.00
2023-03-17T16:48:51.457Z,9.55
2023-03-17T16:52:54.777Z,15.68
2023-03-17T16:56:57.813Z,13.80
2023-03-17T17:01:04.648Z,6.35
2023-03-17T17:05:14.125Z,13.25
2023-03-17T17:09:17.017Z,11.30
2023-03-17T17:13:19.863Z,9.55
2023-03-17T17:17:24.113Z,7.18
2023-03-17T17:21:27.548Z,13.05
2023-03-17T17:25:31.065Z,8.57
2023-03-17T17:29:33.989Z,6.20
2023-03-17T17:33:38.925Z,8.77
2023-03-17T17:37:41.720Z,6.45
2023-03-17T17:41:44.541Z,13.75
2023-03-17T17:45:49.439Z,8.75
2023-03-17T17:49:53.577Z,13.20
2023-03-17T17:53:56.597Z,12.38
2023-03-17T17:57:59.390Z,12.90
2023-03-17T18:02:03.286Z,11.15
2023-03-17T18:06:07.554Z,41.03
2023-03-17T18:10:17.073Z,24.30
2023-03-17T18:14:19.835Z,47.13
2023-03-17T18:18:22.730Z,46.72
2023-03-17T18:22:27.025Z,45.10
2023-03-17T18:26:29.763Z,55.22
2023-03-17T18:30:34.766Z,47.05
2023-03-17T18:34:43.384Z,48.47
2023-03-17T18:38:47.558Z,42.78
2023-03-17T18:42:50.380Z,36.45
2023-03-17T18:46:53.236Z,47.97
2023-03-17T18:50:56.122Z,26.55
2023-03-17T18:55:00.589Z,22.23
2023-03-17T18:59:03.466Z,22.70
2023-03-17T19:03:06.447Z,23.33
2023-03-17T19:07:09.258Z,29.52
2023-03-17T19:11:15.356Z,158.18
2023-03-17T19:15:18.385Z,190.88
2023-03-17T19:19:21.505Z,95.70
2023-03-17T19:23:24.664Z,53.70
2023-03-17T19:27:28.815Z,67.75
2023-03-17T19:31:31.678Z,141.05
2023-03-17T19:35:34.541Z,98.05
2023-03-17T19:39:37.762Z,59.35
2023-03-17T19:43:41.997Z,60.08
2023-03-17T19:47:44.807Z,15.43
2023-03-17T19:51:48.876Z,13.70
2023-03-17T19:55:51.692Z,13.73
2023-03-17T19:59:56.145Z,15.90
2023-03-17T20:03:59.128Z,18.35
2023-03-17T20:08:02.092Z,17.52
2023-03-17T20:12:05.816Z,15.10
2023-03-17T20:16:10.583Z,11.98
2023-03-17T20:20:15.336Z,14.52
2023-03-17T20:24:18.140Z,15.75
2023-03-17T20:28:22.049Z,14.85
2023-03-17T20:32:27.554Z,12.85
2023-03-17T20:36:30.413Z,14.07
2023-03-17T20:40:33.414Z,29.98
2023-03-17T20:44:36.464Z,17.15
2023-03-17T20:48:40.848Z,15.35
2023-03-17T20:52:43.760Z,16.85
2023-03-17T20:56:48.717Z,24.58
2023-03-17T21:00:51.577Z,10.73
2023-03-17T21:04:55.776Z,17.08
2023-03-17T21:08:58.650Z,24.58
2023-03-17T21:13:01.487Z,15.05
2023-03-17T21:17:04.323Z,16.17
2023-03-17T21:21:08.627Z,13.20
2023-03-17T21:25:11.727Z,14.75
2023-03-17T21:29:14.617Z,15.43
2023-03-17T21:33:17.462Z,9.90
2023-03-17T21:37:21.623Z,16.65
2023-03-17T21:41:30.731Z,10.60
2023-03-17T21:45:33.870Z,14.00
2023-03-17T21:49:36.728Z,16.48
2023-03-17T21:53:40.951Z,19.38
2023-03-17T21:57:43.993Z,19.23
2023-03-17T22:01:46.805Z,12.02
2023-03-17T22:05:50.734Z,10.73
2023-03-17T22:09:56.926Z,14.52
2023-03-17T22:13:59.905Z,19.65
2023-03-17T22:18:02.949Z,14.18
2023-03-17T22:22:06.340Z,12.85
2023-03-17T22:26:13.410Z,14.00
2023-03-17T22:30:17.029Z,13.70
2023-03-17T22:34:20.252Z,10.15
2023-03-17T22:38:24.832Z,18.23
2023-03-17T22:42:29.354Z,13.95
2023-03-17T22:46:32.186Z,15.18
2023-03-17T22:50:35.029Z,11.60
2023-03-17T22:54:37.872Z,16.13
2023-03-17T22:58:42.099Z,11.05
2023-03-17T23:02:46.271Z,11.25
2023-03-17T23:06:49.480Z,13.32
2023-03-17T23:10:53.540Z,13.25
2023-03-17T23:14:58.209Z,12.60
2023-03-17T23:19:01.191Z,14.93
2023-03-17T23:23:04.033Z,13.35
2023-03-17T23:27:07.917Z,16.70
2023-03-17T23:31:12.100Z,9.32
2023-03-17T23:35:15.356Z,10.68
2023-03-17T23:39:18.386Z,12.20
2023-03-17T23:43:21.312Z,15.07
2023-03-17T23:47:26.236Z,15.90
2023-03-17T23:51:29.074Z,17.67
2023-03-17T23:55:31.916Z,9.05
2023-03-17T23:59:35.304Z,9.48
